Time;durP1;ratioP1;P1;durP2;ratioP2;P2;SDS_P1;SDS_P2;PMS_P1;PMS_P2;Temp;Humidity;BMP_temperature;BMP_pressure;BME280_temperature;BME280_humidity;BME280_pressure;Samples;Min_cycle;Max_cycle;Signal;HPM_P1;HPM_P2
2023/08/22 00:00:58;;;;;;;7.40;5.43;;;;;;;17.09;94.96;102029.53;4995033;28;20068;-69
2023/08/22 00:03:24;;;;;;;8.13;6.00;;;;;;;17.03;95.03;102018.19;5009538;28;20029;-69
2023/08/22 00:05:49;;;;;;;11.55;6.18;;;;;;;17.04;95.94;102012.88;5005933;28;20030;-69
2023/08/22 00:08:15;;;;;;;7.72;6.00;;;;;;;17.06;96.12;102010.19;5013725;28;20029;-69
2023/08/22 00:10:40;;;;;;;9.02;7.40;;;;;;;17.08;95.03;102008.38;4975945;28;20478;-69
2023/08/22 00:13:06;;;;;;;8.05;6.30;;;;;;;17.09;95.11;102007.47;4983464;28;20040;-69
2023/08/22 00:15:32;;;;;;;8.00;6.50;;;;;;;17.20;94.65;102021.38;4992194;28;20033;-70
2023/08/22 00:17:57;;;;;;;6.53;5.90;;;;;;;17.11;95.46;102014.50;4991990;28;20520;-70
2023/08/22 00:20:23;;;;;;;8.60;7.25;;;;;;;17.21;94.27;102009.00;5005633;28;20049;-69
2023/08/22 00:22:49;;;;;;;8.90;6.85;;;;;;;17.10;96.34;102006.59;4993592;28;20095;-69
2023/08/22 00:25:15;;;;;;;9.48;8.45;;;;;;;17.05;97.32;102003.13;5008344;28;20112;-69
2023/08/22 00:27:45;;;;;;;9.43;7.88;;;;;;;16.99;98.17;102009.44;4993855;28;20034;-70
2023/08/22 00:30:10;;;;;;;;;;;;;;;17.28;94.11;102006.19;5013071;28;20045;-70
2023/08/22 00:32:36;;;;;;;9.57;7.53;;;;;;;17.07;96.27;102007.50;5011377;28;19921;-69
2023/08/22 00:35:01;;;;;;;9.57;7.85;;;;;;;17.05;95.90;102013.72;4997322;28;20040;-69
2023/08/22 00:37:28;;;;;;;11.13;7.45;;;;;;;17.07;96.86;102014.59;4983453;28;20453;-69
2023/08/22 00:39:54;;;;;;;11.20;8.85;;;;;;;16.75;100.00;102005.44;5015855;28;20441;-69
2023/08/22 00:42:20;;;;;;;9.60;8.60;;;;;;;16.66;100.00;102006.50;5009291;28;20037;-69
2023/08/22 00:44:45;;;;;;;12.73;10.50;;;;;;;16.48;100.00;101997.13;4986577;28;20448;-69
2023/08/22 00:47:11;;;;;;;12.63;9.02;;;;;;;16.50;100.00;101995.31;4997617;28;20116;-69
2023/08/22 00:49:37;;;;;;;9.73;8.70;;;;;;;16.56;100.00;101995.19;5004497;28;20136;-69
2023/08/22 00:52:03;;;;;;;12.80;9.25;;;;;;;16.55;100.00;101992.59;4996290;28;20053;-69
2023/08/22 00:54:30;;;;;;;9.23;7.55;;;;;;;16.54;100.00;101996.16;4991310;28;20037;-69
2023/08/22 00:56:56;;;;;;;10.90;8.70;;;;;;;16.63;100.00;101996.84;5008753;28;20091;-70
2023/08/22 00:59:24;;;;;;;11.70;8.90;;;;;;;16.48;100.00;101983.00;5013452;28;20107;-69
2023/08/22 01:01:50;;;;;;;10.65;9.27;;;;;;;16.56;100.00;101978.47;5007914;28;20100;-69
2023/08/22 01:04:15;;;;;;;10.52;9.43;;;;;;;16.47;100.00;101974.22;4992172;28;20034;-69
2023/08/22 01:06:45;;;;;;;12.00;8.68;;;;;;;16.63;100.00;101983.59;4979626;28;20445;-70
2023/08/22 01:09:36;;;;;;;9.30;7.90;;;;;;;16.68;100.00;101977.34;5014376;28;20064;-69
2023/08/22 01:12:32;;;;;;;10.07;8.05;;;;;;;16.59;100.00;101979.28;5027791;28;20032;-69
2023/08/22 01:15:20;;;;;;;11.68;8.70;;;;;;;16.70;99.08;101975.56;5009881;28;20041;-69
2023/08/22 01:17:46;;;;;;;8.55;7.68;;;;;;;16.60;99.09;101981.00;5008019;28;20725;-70
2023/08/22 01:20:12;;;;;;;8.25;7.32;;;;;;;16.54;98.62;101980.28;5010655;28;20081;-69
2023/08/22 01:22:41;;;;;;;10.25;8.05;;;;;;;16.44;99.80;101985.72;4981575;28;20063;-69
2023/08/22 01:25:08;;;;;;;8.57;7.68;;;;;;;16.51;99.43;101986.50;5030771;28;20689;-69
2023/08/22 01:27:44;;;;;;;14.60;7.70;;;;;;;16.52;99.56;101979.41;5011639;28;20358;-69
2023/08/22 01:30:16;;;;;;;10.85;7.57;;;;;;;16.56;98.87;101984.63;5001377;28;20033;-69
2023/08/22 01:32:48;;;;;;;10.77;7.38;;;;;;;16.59;99.40;101991.63;5010419;28;20087;-69
2023/08/22 01:35:21;;;;;;;9.77;6.95;;;;;;;16.48;98.67;101981.25;5013357;28;20381;-70
2023/08/22 01:37:47;;;;;;;6.57;5.80;;;;;;;16.43;98.43;101972.53;5027531;28;20033;-70
2023/08/22 01:40:14;;;;;;;7.65;5.85;;;;;;;16.41;99.58;101971.69;5013961;28;20473;-70
2023/08/22 01:42:39;;;;;;;8.85;7.82;;;;;;;16.18;100.00;101967.69;4994753;28;20112;-70
2023/08/22 01:45:05;;;;;;;13.65;9.55;;;;;;;16.23;100.00;101970.22;4991191;28;20068;-70
2023/08/22 01:47:32;;;;;;;11.70;9.70;;;;;;;16.31;100.00;101975.41;4997244;28;20025;-70
2023/08/22 01:49:57;;;;;;;12.35;9.73;;;;;;;16.42;100.00;101962.84;4998969;28;20041;-70
2023/08/22 01:52:22;;;;;;;11.65;9.52;;;;;;;16.34;100.00;101967.41;5000363;28;20032;-69
2023/08/22 01:54:48;;;;;;;11.48;9.65;;;;;;;16.38;100.00;101972.63;4999857;28;20361;-70
2023/08/22 01:57:14;;;;;;;13.88;9.60;;;;;;;16.34;100.00;101962.97;5009552;28;20037;-71
2023/08/22 01:59:40;;;;;;;11.43;9.95;;;;;;;16.30;100.00;101971.88;4995938;28;20033;-70
2023/08/22 02:02:06;;;;;;;10.85;8.07;;;;;;;16.39;100.00;101965.53;4992780;28;20021;-70
2023/08/22 02:04:31;;;;;;;14.70;10.80;;;;;;;16.35;100.00;101966.50;4978438;28;20445;-69
2023/08/22 02:06:56;;;;;;;12.80;10.82;;;;;;;16.30;100.00;101971.00;4988864;28;20080;-70
2023/08/22 02:09:22;;;;;;;11.82;10.15;;;;;;;16.32;100.00;101972.72;4997279;28;20048;-70
2023/08/22 02:11:52;;;;;;;12.10;9.48;;;;;;;16.35;100.00;101969.13;4998409;28;20465;-70
2023/08/22 02:14:17;;;;;;;21.02;10.60;;;;;;;16.26;100.00;101964.88;5006258;28;20061;-70
2023/08/22 02:16:43;;;;;;;24.73;10.35;;;;;;;16.33;100.00;101963.00;4978271;28;20130;-70
2023/08/22 02:19:08;;;;;;;18.10;9.13;;;;;;;16.22;100.00;101958.78;4999220;28;20133;-69
2023/08/22 02:21:33;;;;;;;30.02;10.02;;;;;;;16.27;100.00;101954.28;5012809;28;20053;-69
2023/08/22 02:23:59;;;;;;;12.93;10.30;;;;;;;16.11;100.00;101951.03;4981519;28;20033;-69
2023/08/22 02:26:26;;;;;;;14.93;10.55;;;;;;;16.04;100.00;101956.47;5008304;28;20048;-69
2023/08/22 02:28:52;;;;;;;13.93;10.85;;;;;;;15.97;100.00;101952.19;4977067;28;20115;-69
2023/08/22 02:31:18;;;;;;;11.60;10.43;;;;;;;16.08;100.00;101943.16;4992281;28;20052;-69
2023/08/22 02:33:43;;;;;;;11.85;9.65;;;;;;;16.16;100.00;101948.34;4995480;28;20022;-69
2023/08/22 02:36:09;;;;;;;13.93;9.63;;;;;;;16.16;100.00;101952.72;4994863;28;20037;-69
2023/08/22 02:38:34;;;;;;;9.75;8.18;;;;;;;16.17;100.00;101943.91;4994490;28;20112;-69
2023/08/22 02:41:00;;;;;;;9.68;8.13;;;;;;;16.10;100.00;101948.41;5001547;28;20033;-70
2023/08/22 02:43:25;;;;;;;12.60;9.40;;;;;;;16.11;100.00;101948.38;4997647;28;20113;-69
2023/08/22 02:45:51;;;;;;;10.77;8.82;;;;;;;16.16;100.00;101950.97;4999525;28;20206;-69
2023/08/22 02:48:16;;;;;;;9.20;7.57;;;;;;;16.02;100.00;101945.91;4999844;28;20452;-69
2023/08/22 02:50:41;;;;;;;12.32;9.15;;;;;;;15.91;100.00;101938.16;4994857;28;20214;-69
2023/08/22 02:53:09;;;;;;;12.30;9.48;;;;;;;16.05;100.00;101947.63;4994880;28;20026;-69
2023/08/22 02:55:35;;;;;;;13.75;9.93;;;;;;;16.04;100.00;101953.81;4976211;28;20383;-69
2023/08/22 02:58:00;;;;;;;14.55;10.45;;;;;;;15.96;100.00;101947.78;4975668;28;20052;-69
2023/08/22 03:00:26;;;;;;;13.57;11.15;;;;;;;15.86;100.00;101947.06;4978756;28;20036;-70
2023/08/22 03:02:51;;;;;;;12.55;10.93;;;;;;;15.88;100.00;101947.91;5007663;28;20036;-69
2023/08/22 03:05:18;;;;;;;12.07;10.05;;;;;;;15.93;100.00;101953.97;5000170;28;20029;-69
2023/08/22 03:07:43;;;;;;;10.50;9.50;;;;;;;15.99;100.00;101950.38;5009194;28;20087;-69
2023/08/22 03:10:09;;;;;;;10.85;9.77;;;;;;;15.93;100.00;101948.69;4979118;28;20033;-69
2023/08/22 03:12:34;;;;;;;9.93;8.77;;;;;;;15.88;100.00;101946.13;4978200;28;20410;-69
2023/08/22 03:15:03;;;;;;;9.55;8.52;;;;;;;15.98;100.00;101948.66;4979615;28;20033;-69
2023/08/22 03:17:28;;;;;;;9.27;8.27;;;;;;;16.00;100.00;101949.47;4995410;28;20060;-69
2023/08/22 03:19:56;;;;;;;12.32;8.35;;;;;;;15.94;100.00;101943.38;4974753;28;20045;-69
2023/08/22 03:22:22;;;;;;;10.63;9.38;;;;;;;15.87;100.00;101947.03;4993381;28;20155;-69
2023/08/22 03:24:47;;;;;;;9.77;8.77;;;;;;;15.90;100.00;101947.00;4988749;28;20029;-69
2023/08/22 03:27:13;;;;;;;13.52;10.95;;;;;;;15.90;100.00;101946.09;4979832;28;20116;-69
2023/08/22 03:29:39;;;;;;;14.73;10.98;;;;;;;15.90;100.00;101940.81;4998183;28;20416;-70
2023/08/22 03:32:05;;;;;;;12.15;10.00;;;;;;;15.98;100.00;101941.56;4979238;28;20041;-70
2023/08/22 03:34:31;;;;;;;11.82;10.23;;;;;;;16.07;100.00;101937.91;5002732;28;20026;-69
2023/08/22 03:36:56;;;;;;;10.45;9.40;;;;;;;16.16;100.00;101942.16;4987264;28;20338;-69
2023/08/22 03:39:21;;;;;;;9.63;8.63;;;;;;;16.12;100.00;101941.34;4983247;28;20029;-70
2023/08/22 03:41:47;;;;;;;11.75;9.52;;;;;;;16.09;100.00;101936.09;5009321;28;20465;-69
2023/08/22 03:44:14;;;;;;;11.68;10.48;;;;;;;15.91;100.00;101943.44;4986245;28;20033;-70
2023/08/22 03:46:40;;;;;;;12.52;10.75;;;;;;;15.87;100.00;101936.44;5008480;28;20131;-70
2023/08/22 03:49:06;;;;;;;12.57;10.23;;;;;;;15.82;100.00;101927.75;4990976;28;20032;-69
2023/08/22 03:51:31;;;;;;;13.48;11.02;;;;;;;15.87;100.00;101936.44;4995807;28;20123;-69
2023/08/22 03:53:57;;;;;;;12.98;10.43;;;;;;;15.88;100.00;101938.19;4993825;28;20056;-69
2023/08/22 03:56:22;;;;;;;9.30;8.40;;;;;;;15.75;100.00;101942.78;4981448;28;20497;-69
2023/08/22 03:58:48;;;;;;;9.98;7.63;;;;;;;15.91;100.00;101938.16;4978744;28;20026;-70
2023/08/22 04:01:14;;;;;;;9.35;7.40;;;;;;;15.70;100.00;101942.00;4995424;28;20026;-70
2023/08/22 04:03:39;;;;;;;10.75;8.40;;;;;;;15.79;100.00;101938.38;4992554;28;20481;-69
2023/08/22 04:06:08;;;;;;;11.88;8.32;;;;;;;15.82;100.00;101938.31;4996400;28;20112;-70
2023/08/22 04:08:33;;;;;;;9.27;7.70;;;;;;;15.68;100.00;101940.28;5016389;28;20115;-70
2023/08/22 04:10:59;;;;;;;8.18;7.30;;;;;;;15.67;99.20;101939.38;5014935;28;20038;-70
2023/08/22 04:13:24;;;;;;;11.85;8.60;;;;;;;15.45;100.00;101937.97;5017043;28;20041;-70
2023/08/22 04:15:52;;;;;;;9.68;7.80;;;;;;;15.62;100.00;101941.25;4985805;28;20022;-70
2023/08/22 04:18:17;;;;;;;11.20;9.02;;;;;;;15.63;100.00;101936.81;5023793;28;20103;-70
2023/08/22 04:20:43;;;;;;;13.88;9.90;;;;;;;15.59;100.00;101936.88;4993905;28;20406;-70
2023/08/22 04:23:09;;;;;;;11.57;9.60;;;;;;;15.50;100.00;101936.13;5000650;28;20042;-70
2023/08/22 04:25:36;;;;;;;10.35;9.02;;;;;;;15.48;100.00;101932.66;5014363;28;20116;-69
2023/08/22 04:28:02;;;;;;;9.80;8.75;;;;;;;15.32;100.00;101929.34;5006135;28;20175;-70
2023/08/22 04:30:27;;;;;;;16.50;10.93;;;;;;;15.28;100.00;101931.16;5008253;28;20515;-70
2023/08/22 04:32:53;;;;;;;19.77;11.63;;;;;;;15.30;100.00;101929.38;4997714;28;20025;-70
2023/08/22 04:35:18;;;;;;;29.27;12.45;;;;;;;15.20;100.00;101926.00;4994857;28;20465;-70
2023/08/22 04:37:47;;;;;;;25.38;10.77;;;;;;;15.22;100.00;101937.38;4998095;28;20026;-70
2023/08/22 04:40:13;;;;;;;25.95;11.15;;;;;;;15.20;100.00;101928.63;5015472;28;20021;-70
2023/08/22 04:42:38;;;;;;;14.98;8.35;;;;;;;15.16;100.00;101926.06;4984315;28;20374;-70
2023/08/22 04:45:04;;;;;;;19.15;7.97;;;;;;;15.17;100.00;101928.69;4985358;28;20756;-70
2023/08/22 04:47:29;;;;;;;12.60;6.60;;;;;;;15.18;100.00;101932.19;4994078;28;20541;-70
2023/08/22 04:49:55;;;;;;;11.18;7.00;;;;;;;15.15;100.00;101927.81;4976087;28;20049;-70
2023/08/22 04:52:20;;;;;;;16.33;8.15;;;;;;;15.10;100.00;101927.00;4987457;28;20034;-70
2023/08/22 04:54:46;;;;;;;12.63;7.47;;;;;;;15.14;100.00;101934.00;4993857;28;20037;-70
2023/08/22 04:57:11;;;;;;;12.18;6.63;;;;;;;15.07;100.00;101937.63;4994813;28;20044;-70
2023/08/22 04:59:37;;;;;;;16.60;7.70;;;;;;;15.09;100.00;101935.81;5000263;28;20037;-70
2023/08/22 05:02:02;;;;;;;18.02;8.82;;;;;;;14.88;100.00;101929.94;5004625;28;20362;-70
2023/08/22 05:04:28;;;;;;;26.10;8.98;;;;;;;15.03;100.00;101935.91;4997687;28;20430;-69
2023/08/22 05:06:53;;;;;;;31.85;12.70;;;;;;;15.01;100.00;101932.41;5014096;28;20120;-69
2023/08/22 05:09:19;;;;;;;17.83;11.00;;;;;;;15.00;100.00;101928.91;4998101;28;20169;-69
2023/08/22 05:11:44;;;;;;;13.70;11.13;;;;;;;15.10;100.00;101929.66;5014253;28;20041;-69
2023/08/22 05:14:11;;;;;;;14.00;12.38;;;;;;;15.01;100.00;101937.69;4993196;28;20481;-70
2023/08/22 05:16:38;;;;;;;16.77;12.77;;;;;;;15.22;100.00;101931.25;5003890;28;20119;-70
2023/08/22 05:19:03;;;;;;;13.82;12.15;;;;;;;15.13;100.00;101934.88;5000198;28;20132;-70
2023/08/22 05:21:29;;;;;;;12.48;11.30;;;;;;;15.18;100.00;101933.03;5015054;28;20182;-70
2023/08/22 05:23:54;;;;;;;14.00;12.70;;;;;;;15.31;100.00;101932.88;5013035;28;20109;-70
2023/08/22 05:26:21;;;;;;;12.50;10.73;;;;;;;15.53;100.00;101942.25;5009969;28;20136;-69
2023/08/22 05:28:46;;;;;;;16.85;13.43;;;;;;;15.47;100.00;101926.47;4993120;28;20079;-69
2023/08/22 05:31:22;;;;;;;16.40;13.88;;;;;;;15.80;100.00;101936.59;4992097;28;20065;-69
2023/08/22 05:33:48;;;;;;;15.30;13.70;;;;;;;15.95;100.00;101936.34;4997771;28;20099;-69
2023/08/22 05:36:14;;;;;;;15.75;14.18;;;;;;;16.07;100.00;101932.59;5020066;28;20147;-70
2023/08/22 05:38:40;;;;;;;17.95;16.25;;;;;;;16.30;100.00;101940.13;4989223;28;20116;-70
2023/08/22 05:41:05;;;;;;;17.40;10.85;;;;;;;16.46;100.00;101940.72;5006551;28;20117;-69
2023/08/22 05:43:31;;;;;;;13.63;11.98;;;;;;;16.61;100.00;101940.44;4961410;28;20065;-69
2023/08/22 05:45:56;;;;;;;14.32;12.85;;;;;;;16.86;100.00;101932.00;5000878;28;20041;-69
2023/08/22 05:48:21;;;;;;;16.15;14.60;;;;;;;16.95;100.00;101929.19;5000315;28;20018;-69
2023/08/22 05:50:48;;;;;;;19.70;16.52;;;;;;;17.08;100.00;101932.47;4996639;28;20131;-69
2023/08/22 05:53:13;;;;;;;19.27;16.90;;;;;;;17.30;100.00;101946.09;4993695;28;20040;-69
2023/08/22 05:55:40;;;;;;;17.48;15.68;;;;;;;17.57;100.00;101954.31;4990569;28;20029;-71
2023/08/22 05:58:05;;;;;;;20.75;16.20;;;;;;;17.84;100.00;101959.84;5000015;28;20233;-70
2023/08/22 06:00:31;;;;;;;17.05;15.52;;;;;;;18.11;100.00;101957.47;4995217;28;20351;-70
2023/08/22 06:02:56;;;;;;;18.33;16.17;;;;;;;18.08;99.57;101944.28;4991175;28;20367;-70
2023/08/22 06:05:22;;;;;;;18.42;16.55;;;;;;;18.53;99.19;101949.28;5301306;23;20566;-70
2023/08/22 06:07:48;;;;;;;18.45;16.40;;;;;;;18.68;98.45;101948.84;5017929;28;20071;-70
2023/08/22 06:10:13;;;;;;;19.08;17.15;;;;;;;19.06;96.33;101963.78;5007722;28;20345;-70
2023/08/22 06:12:39;;;;;;;19.38;17.38;;;;;;;19.36;94.45;101965.47;5190728;23;20100;-70
2023/08/22 06:20:03;;;;;;;17.10;15.35;;;;;;;20.86;91.01;101967.63;5011421;28;20054;-70
2023/08/22 06:25:07;;;;;;;16.52;14.93;;;;;;;21.97;89.50;101963.31;5405433;22;20396;-70
2023/08/22 06:27:32;;;;;;;17.98;14.38;;;;;;;22.09;83.81;101967.25;5459594;23;20054;-70
2023/08/22 06:29:58;;;;;;;17.35;13.48;;;;;;;22.54;83.25;101973.34;5008598;28;20114;-69
2023/08/22 06:32:23;;;;;;;14.25;12.48;;;;;;;22.98;81.62;101975.81;4985134;28;20049;-69
2023/08/22 06:34:49;;;;;;;14.93;12.93;;;;;;;23.48;81.28;101967.25;5390039;22;20064;-69
2023/08/22 06:42:25;;;;;;;17.98;11.25;;;;;;;23.65;73.32;101966.44;5022401;22;20053;-70
2023/08/22 06:44:50;;;;;;;13.23;11.65;;;;;;;24.15;76.18;101967.53;4959790;28;20404;-70
2023/08/22 06:47:16;;;;;;;12.30;10.88;;;;;;;24.47;72.35;101970.34;4947912;28;20385;-70
2023/08/22 06:49:41;;;;;;;12.88;10.45;;;;;;;25.03;73.44;101968.28;4958784;28;20073;-70
2023/08/22 06:52:06;;;;;;;13.07;10.70;;;;;;;25.46;72.17;101965.03;4961969;28;20327;-70
2023/08/22 06:54:32;;;;;;;13.80;10.75;;;;;;;25.71;70.21;101977.03;4950500;28;20490;-69
2023/08/22 06:56:58;;;;;;;12.65;9.57;;;;;;;26.27;66.42;101986.25;4992921;28;20118;-70
2023/08/22 06:59:25;;;;;;;11.40;10.23;;;;;;;26.17;64.99;101984.25;4957119;28;20056;-70
2023/08/22 07:01:50;;;;;;;10.15;9.05;;;;;;;26.57;64.41;101985.38;4973383;28;20048;-70
2023/08/22 07:04:16;;;;;;;13.70;9.70;;;;;;;26.60;62.58;101993.22;4985488;28;20030;-69
2023/08/22 07:06:41;;;;;;;10.27;9.18;;;;;;;26.75;62.74;102002.22;4954025;28;20030;-69
2023/08/22 07:09:07;;;;;;;11.70;8.82;;;;;;;26.61;62.06;102000.34;4973381;28;20517;-69
2023/08/22 07:11:32;;;;;;;12.85;9.25;;;;;;;26.91;61.49;101988.69;4973548;28;20031;-70
2023/08/22 07:13:58;;;;;;;13.25;9.10;;;;;;;26.84;62.15;101995.41;4958755;28;20031;-70
2023/08/22 07:16:24;;;;;;;10.32;8.82;;;;;;;26.65;57.59;102001.03;4979028;28;20474;-70
2023/08/22 07:18:49;;;;;;;9.45;8.35;;;;;;;26.33;59.27;101995.78;4944063;28;20034;-68
2023/08/22 07:21:15;;;;;;;10.70;7.70;;;;;;;26.04;59.37;101997.53;4971626;28;20088;-70
2023/08/22 07:23:40;;;;;;;9.95;7.57;;;;;;;25.63;58.42;101995.41;4955236;28;20038;-69
2023/08/22 07:26:06;;;;;;;9.50;7.75;;;;;;;25.85;61.24;102009.31;4943653;28;20070;-69
2023/08/22 07:28:31;;;;;;;15.23;7.47;;;;;;;26.08;60.71;102002.63;4977598;28;20035;-69
2023/08/22 07:30:57;;;;;;;9.25;7.10;;;;;;;26.24;60.51;102002.56;4973414;28;20117;-69
2023/08/22 07:33:22;;;;;;;8.75;5.93;;;;;;;26.03;59.26;102001.16;4956922;28;20371;-69
2023/08/22 07:35:47;;;;;;;8.23;5.97;;;;;;;25.99;59.24;102002.25;4951144;28;20026;-70
2023/08/22 07:38:13;;;;;;;9.65;6.85;;;;;;;26.20;60.98;102006.41;4978021;28;20144;-70
2023/08/22 07:40:40;;;;;;;7.78;5.85;;;;;;;26.19;58.35;101999.31;4978321;28;20038;-69
2023/08/22 07:43:06;;;;;;;8.95;5.75;;;;;;;26.15;57.78;101994.19;4958828;28;20031;-70
2023/08/22 07:45:32;;;;;;;10.98;6.28;;;;;;;26.39;58.68;101995.44;4987396;28;20113;-70
2023/08/22 07:47:58;;;;;;;10.00;5.43;;;;;;;26.34;58.00;102002.88;4985097;28;20543;-69
2023/08/22 07:50:24;;;;;;;6.22;4.07;;;;;;;25.96;55.07;101999.75;4982865;28;20096;-69
2023/08/22 07:52:49;;;;;;;6.15;4.00;;;;;;;25.83;54.88;101997.81;4962739;28;20467;-69
2023/08/22 07:55:14;;;;;;;8.60;4.05;;;;;;;25.55;52.83;101991.34;4937854;28;20377;-69
2023/08/22 07:57:41;;;;;;;7.07;4.75;;;;;;;25.54;58.01;102000.34;4952706;28;20038;-71
2023/08/22 08:00:10;;;;;;;9.50;5.50;;;;;;;25.56;56.27;101997.59;4966356;28;20093;-69
2023/08/22 08:02:35;;;;;;;9.63;6.78;;;;;;;25.19;55.44;102002.28;4955763;28;20037;-70
2023/08/22 08:05:01;;;;;;;10.48;7.20;;;;;;;25.22;56.99;102000.28;4958776;28;20034;-69
2023/08/22 08:07:27;;;;;;;8.43;7.13;;;;;;;25.09;57.17;102001.94;4934115;28;20041;-69
2023/08/22 08:09:52;;;;;;;9.70;7.07;;;;;;;25.04;58.47;101998.63;4937863;28;20124;-69
2023/08/22 08:12:18;;;;;;;12.77;6.68;;;;;;;24.60;56.84;102004.59;4936347;28;20039;-69
2023/08/22 08:14:43;;;;;;;8.90;6.30;;;;;;;24.56;57.95;102007.38;4960120;28;20034;-69
2023/08/22 08:17:09;;;;;;;9.10;6.32;;;;;;;24.45;58.38;102009.75;4974225;28;20027;-68
2023/08/22 08:19:34;;;;;;;9.77;6.60;;;;;;;24.07;57.79;102011.72;4969080;28;20035;-69
2023/08/22 08:22:00;;;;;;;10.55;6.78;;;;;;;24.17;60.12;102019.19;4935506;28;20031;-69
2023/08/22 08:24:25;;;;;;;8.98;6.38;;;;;;;24.11;60.67;102018.66;4955938;28;20061;-69
2023/08/22 08:26:51;;;;;;;9.13;6.70;;;;;;;24.11;61.96;102019.50;4961336;28;20065;-69
2023/08/22 08:29:18;;;;;;;9.23;6.10;;;;;;;24.02;59.07;102018.16;4942168;28;20022;-69
2023/08/22 08:31:43;;;;;;;12.48;6.40;;;;;;;24.02;59.55;102015.50;4945725;28;20487;-69
2023/08/22 08:34:08;;;;;;;9.45;6.28;;;;;;;23.75;58.82;102012.34;4943060;28;20062;-70
2023/08/22 08:36:34;;;;;;;12.65;7.43;;;;;;;23.62;60.25;102012.06;4952792;28;20173;-69
2023/08/22 08:38:59;;;;;;;9.25;6.78;;;;;;;23.43;61.39;102019.22;4991840;28;20026;-69
2023/08/22 08:41:26;;;;;;;9.13;6.82;;;;;;;23.56;61.09;102028.44;4962758;28;20051;-69
2023/08/22 08:43:52;;;;;;;10.48;6.80;;;;;;;23.56;60.83;102019.50;4939329;28;20518;-69
2023/08/22 08:46:18;;;;;;;10.27;6.55;;;;;;;23.68;61.67;102026.97;4958880;28;20034;-69
2023/08/22 08:48:44;;;;;;;11.50;6.93;;;;;;;23.91;61.94;102016.97;4944071;29;20435;-69
2023/08/22 08:51:10;;;;;;;9.82;6.88;;;;;;;23.81;61.48;102017.38;4962845;28;20047;-69
2023/08/22 08:53:37;;;;;;;13.52;8.02;;;;;;;23.85;61.70;102021.66;4932646;29;20070;-69
2023/08/22 08:56:06;;;;;;;12.05;8.02;;;;;;;23.88;65.02;102007.28;4953827;28;20062;-69
2023/08/22 08:58:33;;;;;;;12.48;8.25;;;;;;;23.63;61.90;102003.09;4966891;28;20541;-69
2023/08/22 09:00:59;;;;;;;13.48;8.38;;;;;;;23.83;62.36;102010.16;4950438;28;20125;-70
2023/08/22 09:03:25;;;;;;;11.88;7.55;;;;;;;23.81;62.70;102014.72;4938517;28;20042;-68
2023/08/22 09:05:50;;;;;;;10.48;8.15;;;;;;;23.81;62.89;102022.72;4930918;28;20039;-69
2023/08/22 09:08:18;;;;;;;13.38;8.88;;;;;;;23.67;62.57;102019.88;4952408;28;20023;-68
2023/08/22 09:10:51;;;;;;;10.98;8.50;;;;;;;23.77;62.69;102029.19;4963696;28;20035;-69
2023/08/22 09:13:24;;;;;;;10.23;8.48;;;;;;;23.70;63.72;102014.34;4949670;28;20101;-69
2023/08/22 09:15:49;;;;;;;16.85;9.38;;;;;;;23.58;62.24;102010.47;4949491;28;20026;-68
2023/08/22 09:18:17;;;;;;;12.27;8.48;;;;;;;23.38;62.88;102016.78;4939619;28;20030;-68
2023/08/22 09:20:45;;;;;;;12.13;8.60;;;;;;;23.22;64.30;102019.31;4956002;28;20041;-68
2023/08/22 09:23:28;;;;;;;14.82;8.80;;;;;;;23.32;64.46;102025.97;4946653;28;20126;-69
2023/08/22 09:25:54;;;;;;;13.00;8.35;;;;;;;23.23;63.34;102025.50;4936485;28;20053;-69
2023/08/22 09:28:19;;;;;;;10.23;8.20;;;;;;;23.18;63.60;102017.72;4927218;28;21787;-69
2023/08/22 09:30:50;;;;;;;12.45;8.27;;;;;;;23.26;64.30;102020.91;4944054;28;20096;-69
2023/08/22 09:33:16;;;;;;;12.73;8.18;;;;;;;23.29;63.51;102009.19;4962070;28;20366;-69
2023/08/22 09:35:44;;;;;;;12.77;8.70;;;;;;;23.11;63.66;102016.25;4918861;28;20034;-69
2023/08/22 09:38:10;;;;;;;12.80;8.38;;;;;;;23.10;64.19;102014.47;4970726;28;20402;-69
2023/08/22 09:40:49;;;;;;;12.73;8.48;;;;;;;23.29;63.94;102014.56;4939551;28;20030;-70
2023/08/22 09:43:14;;;;;;;13.85;8.38;;;;;;;23.57;65.05;102015.91;4963470;28;20043;-69
2023/08/22 09:45:42;;;;;;;14.65;8.68;;;;;;;23.74;65.72;102010.59;4964025;28;20390;-70
2023/08/22 09:48:13;;;;;;;11.13;8.38;;;;;;;23.90;66.55;102021.44;4964482;28;20045;-69
2023/08/22 09:50:42;;;;;;;10.95;8.50;;;;;;;23.87;63.73;102019.78;4970837;28;20367;-69
2023/08/22 09:53:10;;;;;;;13.82;8.27;;;;;;;23.70;64.79;102019.72;4973787;28;20026;-69
2023/08/22 09:55:36;;;;;;;12.07;8.65;;;;;;;23.76;63.16;102019.44;4987163;28;20489;-69
2023/08/22 09:58:04;;;;;;;12.18;9.38;;;;;;;23.60;62.45;102029.13;4965019;28;20034;-69
2023/08/22 10:00:31;;;;;;;11.05;8.05;;;;;;;23.62;63.54;102032.59;4971240;28;20474;-70
2023/08/22 10:03:00;;;;;;;10.32;8.23;;;;;;;23.36;62.40;102040.06;4959932;28;20118;-70
2023/08/22 10:05:26;;;;;;;17.60;8.80;;;;;;;23.44;64.50;102029.84;4989696;28;20026;-69
2023/08/22 10:07:52;;;;;;;12.07;8.27;;;;;;;23.60;65.01;102035.34;4944693;28;20057;-69
2023/08/22 10:10:17;;;;;;;12.70;8.40;;;;;;;23.79;65.66;102027.31;4966460;28;20435;-69
2023/08/22 10:12:44;;;;;;;12.88;9.15;;;;;;;23.89;64.57;102021.53;4961460;28;20439;-69
2023/08/22 10:15:14;;;;;;;12.35;9.52;;;;;;;24.03;65.29;102022.59;4988984;28;20021;-69
2023/08/22 10:17:40;;;;;;;;;;;;;;;24.28;64.50;102033.84;4987239;28;20031;-69
2023/08/22 10:20:06;;;;;;;14.63;9.25;;;;;;;23.85;61.28;102018.13;4968936;28;19952;-69
2023/08/22 10:22:35;;;;;;;12.85;9.43;;;;;;;24.00;65.57;102029.91;4966001;28;20508;-69
2023/08/22 10:25:05;;;;;;;13.60;9.38;;;;;;;24.09;64.67;102021.38;4964357;28;20497;-68
2023/08/22 10:27:31;;;;;;;12.70;10.02;;;;;;;24.00;62.71;102014.69;4974996;28;20037;-68
2023/08/22 10:30:11;;;;;;;13.63;9.27;;;;;;;24.17;63.43;102013.84;4984136;28;20029;-69
2023/08/22 10:32:37;;;;;;;13.77;8.95;;;;;;;24.23;63.54;102011.81;4974886;28;20121;-69
2023/08/22 10:35:05;;;;;;;12.50;9.13;;;;;;;24.42;62.60;102012.56;4959628;28;20187;-69
2023/08/22 10:37:32;;;;;;;13.15;9.45;;;;;;;24.38;62.06;102021.75;4964423;28;20084;-69
2023/08/22 10:39:58;;;;;;;8.98;7.45;;;;;;;23.98;60.21;102023.75;4960105;28;20046;-69
2023/08/22 10:42:25;;;;;;;10.75;7.80;;;;;;;23.76;62.24;102016.75;4961042;28;20105;-69
2023/08/22 10:44:57;;;;;;;11.60;8.32;;;;;;;24.15;62.10;102015.75;4971846;28;20053;-69
2023/08/22 10:47:24;;;;;;;12.70;7.72;;;;;;;24.21;62.75;102015.44;4963658;28;20097;-69
2023/08/22 10:49:51;;;;;;;10.73;7.00;;;;;;;24.41;62.10;102013.53;4973269;28;20042;-68
2023/08/22 10:52:17;;;;;;;12.60;6.65;;;;;;;24.48;60.42;102003.34;4974583;28;20038;-69
2023/08/22 10:55:08;;;;;;;11.27;5.93;;;;;;;24.58;59.47;102003.75;4972307;28;20038;-69
2023/08/22 10:57:38;;;;;;;6.38;4.22;;;;;;;24.32;57.07;102000.59;4973271;28;20402;-68
2023/08/22 11:00:12;;;;;;;7.30;3.10;;;;;;;24.21;56.20;102006.53;4970564;28;20127;-68
2023/08/22 11:02:39;;;;;;;6.70;3.05;;;;;;;24.56;58.24;102004.69;4972594;28;20026;-68
2023/08/22 11:05:11;;;;;;;6.43;3.58;;;;;;;24.77;58.41;102006.34;4959958;28;20034;-69
2023/08/22 11:07:41;;;;;;;6.07;2.92;;;;;;;24.74;57.50;102007.41;4965155;28;20018;-69
2023/08/22 11:10:26;;;;;;;4.47;2.85;;;;;;;24.92;56.23;102004.66;4956065;28;20561;-69
2023/08/22 11:12:57;;;;;;;5.72;3.00;;;;;;;25.03;57.45;102002.28;4969566;28;20077;-69
2023/08/22 11:15:23;;;;;;;6.60;3.05;;;;;;;25.26;57.58;102001.00;4988226;28;20529;-68
2023/08/22 11:17:50;;;;;;;5.22;3.08;;;;;;;25.30;57.49;102004.38;4953380;28;20118;-69
2023/08/22 11:20:20;;;;;;;5.40;3.35;;;;;;;25.03;53.99;102008.50;4979083;28;20508;-69
2023/08/22 11:22:46;;;;;;;6.00;3.30;;;;;;;25.13;56.02;102008.88;4969030;28;20496;-69
2023/08/22 11:25:12;;;;;;;7.25;3.30;;;;;;;25.18;58.10;102017.50;4969515;28;20042;-68